sensor_id;sensor_type;location;lat;lon;timestamp;P1;durP1;ratioP1;P2;durP2;ratioP2
48665;SDS011;34452;50.796;4.994;2023-04-25T00:01:48;14.68;;;5.20;;
48665;SDS011;34452;50.796;4.994;2023-04-25T00:04:14;17.83;;;4.82;;
48665;SDS011;34452;50.796;4.994;2023-04-25T00:09:06;12.85;;;5.22;;
48665;SDS011;34452;50.796;4.994;2023-04-25T00:11:34;13.20;;;5.57;;
48665;SDS011;34452;50.796;4.994;2023-04-25T00:14:00;15.50;;;6.05;;
48665;SDS011;34452;50.796;4.994;2023-04-25T00:16:27;12.27;;;4.90;;
48665;SDS011;34452;50.796;4.994;2023-04-25T00:18:54;15.10;;;5.40;;
48665;SDS011;34452;50.796;4.994;2023-04-25T00:21:20;17.13;;;5.68;;
48665;SDS011;34452;50.796;4.994;2023-04-25T00:23:47;14.10;;;4.65;;
48665;SDS011;34452;50.796;4.994;2023-04-25T00:26:13;20.50;;;5.95;;
48665;SDS011;34452;50.796;4.994;2023-04-25T00:28:39;14.55;;;5.25;;
48665;SDS011;34452;50.796;4.994;2023-04-25T00:31:05;13.30;;;4.97;;
48665;SDS011;34452;50.796;4.994;2023-04-25T00:33:31;22.45;;;5.93;;
48665;SDS011;34452;50.796;4.994;2023-04-25T00:35:56;20.55;;;5.57;;
48665;SDS011;34452;50.796;4.994;2023-04-25T00:38:22;11.68;;;5.40;;
48665;SDS011;34452;50.796;4.994;2023-04-25T00:40:48;16.60;;;5.90;;
48665;SDS011;34452;50.796;4.994;2023-04-25T00:43:14;17.92;;;6.75;;
48665;SDS011;34452;50.796;4.994;2023-04-25T00:45:40;18.95;;;6.60;;
48665;SDS011;34452;50.796;4.994;2023-04-25T00:48:07;12.32;;;5.47;;
48665;SDS011;34452;50.796;4.994;2023-04-25T00:50:33;17.70;;;5.55;;
48665;SDS011;34452;50.796;4.994;2023-04-25T00:52:59;14.63;;;6.45;;
48665;SDS011;34452;50.796;4.994;2023-04-25T00:55:26;19.45;;;5.68;;
48665;SDS011;34452;50.796;4.994;2023-04-25T00:57:52;20.35;;;6.03;;
48665;SDS011;34452;50.796;4.994;2023-04-25T01:00:18;19.75;;;5.68;;
48665;SDS011;34452;50.796;4.994;2023-04-25T01:02:45;14.73;;;5.85;;
48665;SDS011;34452;50.796;4.994;2023-04-25T01:05:11;12.50;;;5.93;;
48665;SDS011;34452;50.796;4.994;2023-04-25T01:07:37;22.35;;;6.20;;
48665;SDS011;34452;50.796;4.994;2023-04-25T01:10:03;21.90;;;5.85;;
48665;SDS011;34452;50.796;4.994;2023-04-25T01:12:31;19.83;;;5.15;;
48665;SDS011;34452;50.796;4.994;2023-04-25T01:14:57;14.77;;;4.25;;
48665;SDS011;34452;50.796;4.994;2023-04-25T01:17:23;16.75;;;5.68;;
48665;SDS011;34452;50.796;4.994;2023-04-25T01:19:49;26.75;;;6.03;;
48665;SDS011;34452;50.796;4.994;2023-04-25T01:22:15;13.15;;;4.93;;
48665;SDS011;34452;50.796;4.994;2023-04-25T01:24:42;21.98;;;5.50;;
48665;SDS011;34452;50.796;4.994;2023-04-25T01:27:08;18.95;;;4.72;;
48665;SDS011;34452;50.796;4.994;2023-04-25T01:29:34;21.15;;;6.50;;
48665;SDS011;34452;50.796;4.994;2023-04-25T01:32:00;16.23;;;4.20;;
48665;SDS011;34452;50.796;4.994;2023-04-25T01:36:52;15.30;;;4.43;;
48665;SDS011;34452;50.796;4.994;2023-04-25T01:39:18;18.20;;;5.82;;
48665;SDS011;34452;50.796;4.994;2023-04-25T01:41:45;20.90;;;5.20;;
48665;SDS011;34452;50.796;4.994;2023-04-25T01:44:12;21.33;;;5.88;;
48665;SDS011;34452;50.796;4.994;2023-04-25T01:46:38;16.38;;;4.05;;
48665;SDS011;34452;50.796;4.994;2023-04-25T01:49:04;20.90;;;5.13;;
48665;SDS011;34452;50.796;4.994;2023-04-25T01:51:30;21.10;;;6.32;;
48665;SDS011;34452;50.796;4.994;2023-04-25T01:56:22;10.00;;;4.40;;
48665;SDS011;34452;50.796;4.994;2023-04-25T01:58:48;27.02;;;4.97;;
48665;SDS011;34452;50.796;4.994;2023-04-25T02:01:14;18.27;;;4.32;;
48665;SDS011;34452;50.796;4.994;2023-04-25T02:03:40;25.38;;;5.45;;
48665;SDS011;34452;50.796;4.994;2023-04-25T02:06:06;21.55;;;5.45;;
48665;SDS011;34452;50.796;4.994;2023-04-25T02:08:31;23.77;;;5.72;;
48665;SDS011;34452;50.796;4.994;2023-04-25T02:13:24;22.85;;;6.32;;
48665;SDS011;34452;50.796;4.994;2023-04-25T02:15:49;23.35;;;5.95;;
48665;SDS011;34452;50.796;4.994;2023-04-25T02:18:15;18.15;;;4.78;;
48665;SDS011;34452;50.796;4.994;2023-04-25T02:20:41;26.27;;;5.93;;
48665;SDS011;34452;50.796;4.994;2023-04-25T02:23:07;19.75;;;5.38;;
48665;SDS011;34452;50.796;4.994;2023-04-25T02:25:33;16.30;;;5.03;;
48665;SDS011;34452;50.796;4.994;2023-04-25T02:27:59;17.63;;;4.72;;
48665;SDS011;34452;50.796;4.994;2023-04-25T02:30:25;25.10;;;6.75;;
48665;SDS011;34452;50.796;4.994;2023-04-25T02:32:50;17.88;;;5.13;;
48665;SDS011;34452;50.796;4.994;2023-04-25T02:35:16;20.90;;;4.95;;
48665;SDS011;34452;50.796;4.994;2023-04-25T02:37:42;19.95;;;5.45;;
48665;SDS011;34452;50.796;4.994;2023-04-25T02:40:08;22.73;;;5.85;;
48665;SDS011;34452;50.796;4.994;2023-04-25T02:42:35;29.63;;;7.15;;
48665;SDS011;34452;50.796;4.994;2023-04-25T02:45:00;25.58;;;6.63;;
48665;SDS011;34452;50.796;4.994;2023-04-25T02:49:52;21.75;;;5.97;;
48665;SDS011;34452;50.796;4.994;2023-04-25T02:52:18;21.98;;;6.00;;
48665;SDS011;34452;50.796;4.994;2023-04-25T02:54:44;16.63;;;6.10;;
48665;SDS011;34452;50.796;4.994;2023-04-25T02:57:10;24.35;;;5.53;;
48665;SDS011;34452;50.796;4.994;2023-04-25T02:59:35;19.92;;;5.80;;
48665;SDS011;34452;50.796;4.994;2023-04-25T03:02:01;22.45;;;5.80;;
48665;SDS011;34452;50.796;4.994;2023-04-25T03:04:27;16.05;;;4.35;;
48665;SDS011;34452;50.796;4.994;2023-04-25T03:06:52;15.55;;;5.28;;
48665;SDS011;34452;50.796;4.994;2023-04-25T03:09:18;26.75;;;6.05;;
48665;SDS011;34452;50.796;4.994;2023-04-25T03:11:45;16.45;;;4.97;;
48665;SDS011;34452;50.796;4.994;2023-04-25T03:14:11;18.73;;;5.15;;
48665;SDS011;34452;50.796;4.994;2023-04-25T03:16:37;19.33;;;5.40;;
48665;SDS011;34452;50.796;4.994;2023-04-25T03:21:30;21.08;;;5.15;;
48665;SDS011;34452;50.796;4.994;2023-04-25T03:23:57;22.60;;;5.95;;
48665;SDS011;34452;50.796;4.994;2023-04-25T03:26:23;19.90;;;5.15;;
48665;SDS011;34452;50.796;4.994;2023-04-25T03:28:49;19.65;;;5.20;;
48665;SDS011;34452;50.796;4.994;2023-04-25T03:31:15;23.23;;;5.50;;
48665;SDS011;34452;50.796;4.994;2023-04-25T03:36:07;25.67;;;6.18;;
48665;SDS011;34452;50.796;4.994;2023-04-25T03:38:33;30.60;;;6.28;;
48665;SDS011;34452;50.796;4.994;2023-04-25T03:40:59;21.95;;;5.07;;
48665;SDS011;34452;50.796;4.994;2023-04-25T03:43:26;19.23;;;5.50;;
48665;SDS011;34452;50.796;4.994;2023-04-25T03:45:51;22.90;;;4.57;;
48665;SDS011;34452;50.796;4.994;2023-04-25T03:48:17;19.02;;;5.40;;
48665;SDS011;34452;50.796;4.994;2023-04-25T03:50:43;24.30;;;5.20;;
48665;SDS011;34452;50.796;4.994;2023-04-25T03:53:08;26.53;;;4.93;;
48665;SDS011;34452;50.796;4.994;2023-04-25T03:55:34;20.10;;;5.22;;
48665;SDS011;34452;50.796;4.994;2023-04-25T03:58:00;21.25;;;5.28;;
48665;SDS011;34452;50.796;4.994;2023-04-25T04:00:26;24.02;;;5.07;;
48665;SDS011;34452;50.796;4.994;2023-04-25T04:02:51;25.52;;;4.63;;
48665;SDS011;34452;50.796;4.994;2023-04-25T04:05:17;20.77;;;4.93;;
48665;SDS011;34452;50.796;4.994;2023-04-25T04:07:43;27.65;;;6.68;;
48665;SDS011;34452;50.796;4.994;2023-04-25T04:10:09;25.13;;;5.38;;
48665;SDS011;34452;50.796;4.994;2023-04-25T04:12:36;18.85;;;4.95;;
48665;SDS011;34452;50.796;4.994;2023-04-25T04:15:02;25.02;;;4.97;;
48665;SDS011;34452;50.796;4.994;2023-04-25T04:17:29;26.33;;;5.88;;
48665;SDS011;34452;50.796;4.994;2023-04-25T04:19:55;21.63;;;5.85;;
48665;SDS011;34452;50.796;4.994;2023-04-25T04:22:21;29.25;;;5.95;;
48665;SDS011;34452;50.796;4.994;2023-04-25T04:24:48;16.95;;;4.88;;
48665;SDS011;34452;50.796;4.994;2023-04-25T04:27:15;21.90;;;5.70;;
48665;SDS011;34452;50.796;4.994;2023-04-25T04:29:42;20.02;;;5.10;;
48665;SDS011;34452;50.796;4.994;2023-04-25T04:32:08;21.13;;;4.70;;
48665;SDS011;34452;50.796;4.994;2023-04-25T04:34:34;19.67;;;5.50;;
48665;SDS011;34452;50.796;4.994;2023-04-25T04:37:00;22.95;;;5.25;;
48665;SDS011;34452;50.796;4.994;2023-04-25T04:39:26;26.38;;;6.05;;
48665;SDS011;34452;50.796;4.994;2023-04-25T04:41:52;31.50;;;6.35;;
48665;SDS011;34452;50.796;4.994;2023-04-25T04:44:18;31.67;;;6.45;;
48665;SDS011;34452;50.796;4.994;2023-04-25T04:46:44;25.58;;;5.65;;
48665;SDS011;34452;50.796;4.994;2023-04-25T04:49:11;20.55;;;5.90;;
48665;SDS011;34452;50.796;4.994;2023-04-25T04:51:39;32.58;;;6.75;;
48665;SDS011;34452;50.796;4.994;2023-04-25T04:54:05;28.35;;;5.43;;
48665;SDS011;34452;50.796;4.994;2023-04-25T04:56:31;29.60;;;6.32;;
48665;SDS011;34452;50.796;4.994;2023-04-25T05:01:24;38.20;;;6.43;;
48665;SDS011;34452;50.796;4.994;2023-04-25T05:03:50;26.75;;;5.65;;
48665;SDS011;34452;50.796;4.994;2023-04-25T05:06:17;21.10;;;5.55;;
48665;SDS011;34452;50.796;4.994;2023-04-25T05:08:44;32.45;;;7.28;;
48665;SDS011;34452;50.796;4.994;2023-04-25T05:11:10;24.17;;;5.22;;
48665;SDS011;34452;50.796;4.994;2023-04-25T05:13:36;26.25;;;6.78;;
48665;SDS011;34452;50.796;4.994;2023-04-25T05:16:02;22.42;;;5.65;;
48665;SDS011;34452;50.796;4.994;2023-04-25T05:18:27;26.20;;;5.97;;
48665;SDS011;34452;50.796;4.994;2023-04-25T05:20:53;30.85;;;5.82;;
48665;SDS011;34452;50.796;4.994;2023-04-25T05:23:19;30.87;;;6.00;;
48665;SDS011;34452;50.796;4.994;2023-04-25T05:25:44;22.63;;;5.60;;
48665;SDS011;34452;50.796;4.994;2023-04-25T05:28:12;17.47;;;5.97;;
48665;SDS011;34452;50.796;4.994;2023-04-25T05:30:38;23.60;;;5.47;;
48665;SDS011;34452;50.796;4.994;2023-04-25T05:33:04;34.88;;;7.20;;
48665;SDS011;34452;50.796;4.994;2023-04-25T05:35:30;24.00;;;6.23;;
48665;SDS011;34452;50.796;4.994;2023-04-25T05:37:55;43.40;;;6.90;;
48665;SDS011;34452;50.796;4.994;2023-04-25T05:40:21;35.28;;;7.90;;
48665;SDS011;34452;50.796;4.994;2023-04-25T05:42:47;23.33;;;5.47;;
48665;SDS011;34452;50.796;4.994;2023-04-25T05:45:13;31.67;;;7.03;;
48665;SDS011;34452;50.796;4.994;2023-04-25T05:47:38;23.55;;;5.55;;
48665;SDS011;34452;50.796;4.994;2023-04-25T05:50:04;25.60;;;5.93;;
48665;SDS011;34452;50.796;4.994;2023-04-25T05:54:56;24.38;;;5.72;;
48665;SDS011;34452;50.796;4.994;2023-04-25T05:57:22;27.27;;;6.90;;
48665;SDS011;34452;50.796;4.994;2023-04-25T05:59:49;23.40;;;6.15;;
48665;SDS011;34452;50.796;4.994;2023-04-25T06:02:15;24.27;;;6.40;;
48665;SDS011;34452;50.796;4.994;2023-04-25T06:04:41;26.90;;;6.82;;
48665;SDS011;34452;50.796;4.994;2023-04-25T06:07:06;26.73;;;6.75;;
48665;SDS011;34452;50.796;4.994;2023-04-25T06:09:32;24.95;;;5.32;;
48665;SDS011;34452;50.796;4.994;2023-04-25T06:11:59;27.92;;;6.55;;
48665;SDS011;34452;50.796;4.994;2023-04-25T06:14:24;23.92;;;5.47;;
48665;SDS011;34452;50.796;4.994;2023-04-25T06:16:50;32.25;;;6.93;;
48665;SDS011;34452;50.796;4.994;2023-04-25T06:19:16;26.23;;;5.67;;
48665;SDS011;34452;50.796;4.994;2023-04-25T06:21:43;21.20;;;4.53;;
48665;SDS011;34452;50.796;4.994;2023-04-25T06:24:09;25.38;;;5.95;;
48665;SDS011;34452;50.796;4.994;2023-04-25T06:26:35;25.15;;;6.47;;
48665;SDS011;34452;50.796;4.994;2023-04-25T06:29:01;22.63;;;5.20;;
48665;SDS011;34452;50.796;4.994;2023-04-25T06:31:27;33.33;;;7.10;;
48665;SDS011;34452;50.796;4.994;2023-04-25T06:33:54;16.25;;;5.22;;
48665;SDS011;34452;50.796;4.994;2023-04-25T06:36:20;22.60;;;6.18;;
48665;SDS011;34452;50.796;4.994;2023-04-25T06:38:50;24.90;;;5.88;;
48665;SDS011;34452;50.796;4.994;2023-04-25T06:41:17;31.27;;;5.97;;
48665;SDS011;34452;50.796;4.994;2023-04-25T06:43:43;26.05;;;6.25;;
48665;SDS011;34452;50.796;4.994;2023-04-25T06:46:09;26.00;;;5.60;;
48665;SDS011;34452;50.796;4.994;2023-04-25T06:48:35;29.20;;;5.78;;
48665;SDS011;34452;50.796;4.994;2023-04-25T06:51:01;19.70;;;4.75;;
48665;SDS011;34452;50.796;4.994;2023-04-25T06:53:27;22.48;;;4.85;;
48665;SDS011;34452;50.796;4.994;2023-04-25T06:55:53;21.30;;;5.03;;
48665;SDS011;34452;50.796;4.994;2023-04-25T06:58:19;19.27;;;4.90;;
48665;SDS011;34452;50.796;4.994;2023-04-25T07:00:45;17.00;;;4.43;;
48665;SDS011;34452;50.796;4.994;2023-04-25T07:03:10;25.98;;;5.28;;
48665;SDS011;34452;50.796;4.994;2023-04-25T07:05:37;24.67;;;6.25;;
48665;SDS011;34452;50.796;4.994;2023-04-25T07:08:02;21.02;;;6.03;;
48665;SDS011;34452;50.796;4.994;2023-04-25T07:10:29;25.10;;;5.05;;
48665;SDS011;34452;50.796;4.994;2023-04-25T07:12:54;22.00;;;5.30;;
48665;SDS011;34452;50.796;4.994;2023-04-25T07:15:20;22.95;;;5.15;;
48665;SDS011;34452;50.796;4.994;2023-04-25T07:17:46;21.90;;;4.40;;
48665;SDS011;34452;50.796;4.994;2023-04-25T07:20:12;25.02;;;5.30;;
48665;SDS011;34452;50.796;4.994;2023-04-25T07:22:38;31.05;;;6.28;;
48665;SDS011;34452;50.796;4.994;2023-04-25T07:25:04;17.40;;;3.77;;
48665;SDS011;34452;50.796;4.994;2023-04-25T07:27:30;23.27;;;4.15;;
48665;SDS011;34452;50.796;4.994;2023-04-25T07:29:56;22.08;;;5.00;;
48665;SDS011;34452;50.796;4.994;2023-04-25T07:32:22;28.25;;;5.10;;
48665;SDS011;34452;50.796;4.994;2023-04-25T07:34:48;19.60;;;4.03;;
48665;SDS011;34452;50.796;4.994;2023-04-25T07:37:14;22.02;;;4.20;;
48665;SDS011;34452;50.796;4.994;2023-04-25T07:39:40;15.50;;;4.05;;
48665;SDS011;34452;50.796;4.994;2023-04-25T07:42:06;18.13;;;3.97;;
48665;SDS011;34452;50.796;4.994;2023-04-25T07:44:33;22.35;;;4.15;;
48665;SDS011;34452;50.796;4.994;2023-04-25T07:47:05;17.85;;;4.10;;
48665;SDS011;34452;50.796;4.994;2023-04-25T07:49:33;30.70;;;4.85;;
48665;SDS011;34452;50.796;4.994;2023-04-25T07:51:59;18.05;;;3.83;;
48665;SDS011;34452;50.796;4.994;2023-04-25T07:54:25;20.45;;;4.32;;
48665;SDS011;34452;50.796;4.994;2023-04-25T07:56:51;20.63;;;4.18;;
48665;SDS011;34452;50.796;4.994;2023-04-25T07:59:18;21.15;;;3.80;;
48665;SDS011;34452;50.796;4.994;2023-04-25T08:01:44;16.67;;;4.82;;
48665;SDS011;34452;50.796;4.994;2023-04-25T08:04:10;18.23;;;4.00;;
48665;SDS011;34452;50.796;4.994;2023-04-25T08:06:36;20.90;;;4.22;;
48665;SDS011;34452;50.796;4.994;2023-04-25T08:09:02;19.80;;;4.63;;
48665;SDS011;34452;50.796;4.994;2023-04-25T08:11:29;24.48;;;4.95;;
48665;SDS011;34452;50.796;4.994;2023-04-25T08:13:54;19.35;;;5.18;;
48665;SDS011;34452;50.796;4.994;2023-04-25T08:16:20;19.50;;;4.45;;
48665;SDS011;34452;50.796;4.994;2023-04-25T08:18:47;21.48;;;4.97;;
48665;SDS011;34452;50.796;4.994;2023-04-25T08:21:12;24.90;;;5.75;;
48665;SDS011;34452;50.796;4.994;2023-04-25T08:23:38;25.13;;;3.97;;
48665;SDS011;34452;50.796;4.994;2023-04-25T08:26:04;19.70;;;3.60;;
48665;SDS011;34452;50.796;4.994;2023-04-25T08:28:30;17.17;;;3.83;;
48665;SDS011;34452;50.796;4.994;2023-04-25T08:30:56;17.13;;;3.72;;
48665;SDS011;34452;50.796;4.994;2023-04-25T08:33:22;19.45;;;3.88;;
48665;SDS011;34452;50.796;4.994;2023-04-25T08:35:48;23.02;;;4.25;;
48665;SDS011;34452;50.796;4.994;2023-04-25T08:38:14;20.45;;;3.60;;
48665;SDS011;34452;50.796;4.994;2023-04-25T08:40:40;13.77;;;2.80;;
48665;SDS011;34452;50.796;4.994;2023-04-25T08:43:06;16.25;;;3.22;;
48665;SDS011;34452;50.796;4.994;2023-04-25T08:45:48;11.63;;;2.60;;
48665;SDS011;34452;50.796;4.994;2023-04-25T08:48:14;22.45;;;2.85;;
48665;SDS011;34452;50.796;4.994;2023-04-25T08:50:45;16.77;;;3.08;;
48665;SDS011;34452;50.796;4.994;2023-04-25T08:53:15;17.48;;;3.60;;
48665;SDS011;34452;50.796;4.994;2023-04-25T08:55:43;16.50;;;2.63;;
48665;SDS011;34452;50.796;4.994;2023-04-25T08:58:11;18.70;;;3.40;;
48665;SDS011;34452;50.796;4.994;2023-04-25T09:00:38;17.63;;;3.03;;
48665;SDS011;34452;50.796;4.994;2023-04-25T09:03:04;19.42;;;2.90;;
48665;SDS011;34452;50.796;4.994;2023-04-25T09:05:32;18.00;;;3.53;;
48665;SDS011;34452;50.796;4.994;2023-04-25T09:07:59;22.00;;;2.92;;
48665;SDS011;34452;50.796;4.994;2023-04-25T09:10:26;14.35;;;2.40;;
48665;SDS011;34452;50.796;4.994;2023-04-25T09:15:50;17.13;;;3.47;;
48665;SDS011;34452;50.796;4.994;2023-04-25T09:18:33;18.30;;;3.35;;
48665;SDS011;34452;50.796;4.994;2023-04-25T09:23:47;18.52;;;3.47;;
48665;SDS011;34452;50.796;4.994;2023-04-25T09:26:15;26.60;;;4.40;;
48665;SDS011;34452;50.796;4.994;2023-04-25T09:28:42;19.52;;;4.32;;
48665;SDS011;34452;50.796;4.994;2023-04-25T09:31:09;17.65;;;3.70;;
48665;SDS011;34452;50.796;4.994;2023-04-25T09:33:37;18.77;;;4.40;;
48665;SDS011;34452;50.796;4.994;2023-04-25T09:38:30;18.33;;;4.05;;
48665;SDS011;34452;50.796;4.994;2023-04-25T09:40:57;20.20;;;5.10;;
48665;SDS011;34452;50.796;4.994;2023-04-25T09:43:24;21.70;;;3.80;;
48665;SDS011;34452;50.796;4.994;2023-04-25T09:45:51;14.80;;;3.65;;
48665;SDS011;34452;50.796;4.994;2023-04-25T09:48:22;18.52;;;4.05;;
48665;SDS011;34452;50.796;4.994;2023-04-25T09:53:36;15.27;;;3.53;;
48665;SDS011;34452;50.796;4.994;2023-04-25T09:56:04;23.63;;;4.30;;
48665;SDS011;34452;50.796;4.994;2023-04-25T09:58:32;18.08;;;3.92;;
48665;SDS011;34452;50.796;4.994;2023-04-25T10:00:59;17.80;;;4.13;;
48665;SDS011;34452;50.796;4.994;2023-04-25T10:03:29;23.38;;;4.75;;
48665;SDS011;34452;50.796;4.994;2023-04-25T10:05:56;17.65;;;4.38;;
48665;SDS011;34452;50.796;4.994;2023-04-25T10:08:41;17.48;;;3.63;;
48665;SDS011;34452;50.796;4.994;2023-04-25T10:11:08;21.35;;;3.65;;
48665;SDS011;34452;50.796;4.994;2023-04-25T10:13:34;23.35;;;4.07;;
48665;SDS011;34452;50.796;4.994;2023-04-25T10:16:02;11.60;;;2.80;;
48665;SDS011;34452;50.796;4.994;2023-04-25T10:18:29;8.25;;;1.88;;
48665;SDS011;34452;50.796;4.994;2023-04-25T10:20:57;12.68;;;2.60;;
48665;SDS011;34452;50.796;4.994;2023-04-25T10:23:25;9.93;;;2.60;;
48665;SDS011;34452;50.796;4.994;2023-04-25T10:25:51;6.18;;;1.80;;
48665;SDS011;34452;50.796;4.994;2023-04-25T10:30:58;8.73;;;2.20;;
48665;SDS011;34452;50.796;4.994;2023-04-25T10:36:14;13.00;;;2.20;;
48665;SDS011;34452;50.796;4.994;2023-04-25T10:38:43;24.67;;;4.57;;
48665;SDS011;34452;50.796;4.994;2023-04-25T10:41:10;11.05;;;2.45;;
48665;SDS011;34452;50.796;4.994;2023-04-25T10:43:39;14.60;;;2.42;;
48665;SDS011;34452;50.796;4.994;2023-04-25T10:46:16;14.77;;;2.22;;
48665;SDS011;34452;50.796;4.994;2023-04-25T10:49:01;10.30;;;1.90;;
48665;SDS011;34452;50.796;4.994;2023-04-25T10:51:28;15.20;;;2.60;;
48665;SDS011;34452;50.796;4.994;2023-04-25T10:53:59;23.15;;;3.13;;
48665;SDS011;34452;50.796;4.994;2023-04-25T10:56:26;8.88;;;1.88;;
48665;SDS011;34452;50.796;4.994;2023-04-25T10:59:06;13.60;;;2.65;;
48665;SDS011;34452;50.796;4.994;2023-04-25T11:01:53;11.88;;;2.67;;
48665;SDS011;34452;50.796;4.994;2023-04-25T11:04:20;13.27;;;2.72;;
48665;SDS011;34452;50.796;4.994;2023-04-25T11:09:40;10.32;;;2.33;;
48665;SDS011;34452;50.796;4.994;2023-04-25T11:12:08;13.75;;;3.97;;
48665;SDS011;34452;50.796;4.994;2023-04-25T11:14:35;11.25;;;2.20;;
48665;SDS011;34452;50.796;4.994;2023-04-25T11:17:01;9.95;;;2.25;;
48665;SDS011;34452;50.796;4.994;2023-04-25T11:19:27;9.60;;;2.00;;
48665;SDS011;34452;50.796;4.994;2023-04-25T11:21:55;12.82;;;2.85;;
48665;SDS011;34452;50.796;4.994;2023-04-25T11:24:34;12.93;;;2.20;;
48665;SDS011;34452;50.796;4.994;2023-04-25T11:27:01;7.07;;;1.63;;
48665;SDS011;34452;50.796;4.994;2023-04-25T11:29:29;5.35;;;2.15;;
48665;SDS011;34452;50.796;4.994;2023-04-25T11:31:55;6.35;;;1.10;;
48665;SDS011;34452;50.796;4.994;2023-04-25T11:34:23;6.07;;;1.50;;
48665;SDS011;34452;50.796;4.994;2023-04-25T11:36:50;3.35;;;1.33;;
48665;SDS011;34452;50.796;4.994;2023-04-25T11:39:17;9.88;;;1.65;;
48665;SDS011;34452;50.796;4.994;2023-04-25T11:41:44;3.35;;;1.40;;
48665;SDS011;34452;50.796;4.994;2023-04-25T11:46:37;6.80;;;1.30;;
48665;SDS011;34452;50.796;4.994;2023-04-25T11:49:02;2.15;;;0.98;;
48665;SDS011;34452;50.796;4.994;2023-04-25T11:51:29;2.60;;;0.98;;
48665;SDS011;34452;50.796;4.994;2023-04-25T11:54:02;6.45;;;1.90;;
48665;SDS011;34452;50.796;4.994;2023-04-25T11:56:28;5.53;;;1.33;;
48665;SDS011;34452;50.796;4.994;2023-04-25T11:58:55;3.70;;;1.35;;
48665;SDS011;34452;50.796;4.994;2023-04-25T12:06:51;8.07;;;1.30;;
48665;SDS011;34452;50.796;4.994;2023-04-25T12:09:19;7.03;;;1.80;;
48665;SDS011;34452;50.796;4.994;2023-04-25T12:11:53;6.00;;;1.83;;
48665;SDS011;34452;50.796;4.994;2023-04-25T12:14:20;4.05;;;1.20;;
48665;SDS011;34452;50.796;4.994;2023-04-25T12:16:49;4.95;;;1.67;;
48665;SDS011;34452;50.796;4.994;2023-04-25T12:19:16;7.22;;;1.83;;
48665;SDS011;34452;50.796;4.994;2023-04-25T12:21:44;16.95;;;2.00;;
48665;SDS011;34452;50.796;4.994;2023-04-25T12:24:11;3.83;;;1.40;;
48665;SDS011;34452;50.796;4.994;2023-04-25T12:26:51;6.45;;;1.70;;
48665;SDS011;34452;50.796;4.994;2023-04-25T12:31:58;8.23;;;1.75;;
48665;SDS011;34452;50.796;4.994;2023-04-25T12:34:26;8.32;;;1.70;;
48665;SDS011;34452;50.796;4.994;2023-04-25T12:39:19;5.57;;;1.50;;
48665;SDS011;34452;50.796;4.994;2023-04-25T12:41:47;12.02;;;1.70;;
48665;SDS011;34452;50.796;4.994;2023-04-25T12:44:14;10.35;;;2.63;;
48665;SDS011;34452;50.796;4.994;2023-04-25T12:49:06;6.72;;;1.63;;
48665;SDS011;34452;50.796;4.994;2023-04-25T12:51:33;5.93;;;1.50;;
48665;SDS011;34452;50.796;4.994;2023-04-25T12:53:59;11.35;;;2.70;;
48665;SDS011;34452;50.796;4.994;2023-04-25T12:56:26;7.50;;;2.30;;
48665;SDS011;34452;50.796;4.994;2023-04-25T12:58:52;5.28;;;1.58;;
48665;SDS011;34452;50.796;4.994;2023-04-25T13:01:18;6.40;;;1.55;;
48665;SDS011;34452;50.796;4.994;2023-04-25T13:03:46;7.40;;;1.73;;
48665;SDS011;34452;50.796;4.994;2023-04-25T13:06:13;8.40;;;1.90;;
48665;SDS011;34452;50.796;4.994;2023-04-25T13:08:39;7.93;;;1.73;;
48665;SDS011;34452;50.796;4.994;2023-04-25T13:11:06;4.53;;;1.30;;
48665;SDS011;34452;50.796;4.994;2023-04-25T13:13:32;8.40;;;1.73;;
48665;SDS011;34452;50.796;4.994;2023-04-25T13:16:00;7.90;;;1.70;;
48665;SDS011;34452;50.796;4.994;2023-04-25T13:18:27;5.95;;;1.30;;
48665;SDS011;34452;50.796;4.994;2023-04-25T13:23:19;4.72;;;1.10;;
48665;SDS011;34452;50.796;4.994;2023-04-25T13:25:45;7.55;;;1.20;;
48665;SDS011;34452;50.796;4.994;2023-04-25T13:30:38;7.45;;;1.35;;
48665;SDS011;34452;50.796;4.994;2023-04-25T13:33:04;5.05;;;1.05;;
48665;SDS011;34452;50.796;4.994;2023-04-25T13:35:31;7.38;;;1.20;;
48665;SDS011;34452;50.796;4.994;2023-04-25T13:37:59;3.63;;;1.25;;
48665;SDS011;34452;50.796;4.994;2023-04-25T13:40:25;9.98;;;1.80;;
48665;SDS011;34452;50.796;4.994;2023-04-25T13:42:52;8.40;;;1.40;;
48665;SDS011;34452;50.796;4.994;2023-04-25T13:45:18;3.88;;;1.05;;
48665;SDS011;34452;50.796;4.994;2023-04-25T13:47:44;5.93;;;1.20;;
48665;SDS011;34452;50.796;4.994;2023-04-25T13:50:10;7.65;;;1.60;;
48665;SDS011;34452;50.796;4.994;2023-04-25T13:55:02;3.67;;;1.45;;
48665;SDS011;34452;50.796;4.994;2023-04-25T13:57:30;3.42;;;1.30;;
48665;SDS011;34452;50.796;4.994;2023-04-25T13:59:56;4.07;;;1.30;;
48665;SDS011;34452;50.796;4.994;2023-04-25T14:02:21;6.13;;;1.27;;
48665;SDS011;34452;50.796;4.994;2023-04-25T14:04:47;3.25;;;1.00;;
48665;SDS011;34452;50.796;4.994;2023-04-25T14:07:13;5.80;;;1.27;;
48665;SDS011;34452;50.796;4.994;2023-04-25T14:10:10;4.32;;;1.25;;
48665;SDS011;34452;50.796;4.994;2023-04-25T14:12:35;8.50;;;1.25;;
48665;SDS011;34452;50.796;4.994;2023-04-25T14:15:01;4.20;;;1.30;;
48665;SDS011;34452;50.796;4.994;2023-04-25T14:17:27;8.27;;;1.35;;
48665;SDS011;34452;50.796;4.994;2023-04-25T14:19:53;2.38;;;0.95;;
48665;SDS011;34452;50.796;4.994;2023-04-25T14:22:19;6.28;;;1.52;;
48665;SDS011;34452;50.796;4.994;2023-04-25T14:24:45;7.38;;;1.50;;
48665;SDS011;34452;50.796;4.994;2023-04-25T14:27:11;8.68;;;2.05;;
48665;SDS011;34452;50.796;4.994;2023-04-25T14:29:36;2.30;;;1.07;;
48665;SDS011;34452;50.796;4.994;2023-04-25T14:32:02;5.25;;;1.08;;
48665;SDS011;34452;50.796;4.994;2023-04-25T14:34:30;5.00;;;1.25;;
48665;SDS011;34452;50.796;4.994;2023-04-25T14:36:55;5.75;;;1.13;;
48665;SDS011;34452;50.796;4.994;2023-04-25T14:39:21;7.22;;;1.42;;
48665;SDS011;34452;50.796;4.994;2023-04-25T14:41:47;3.30;;;1.05;;
48665;SDS011;34452;50.796;4.994;2023-04-25T14:44:13;15.80;;;1.65;;
48665;SDS011;34452;50.796;4.994;2023-04-25T14:46:38;2.70;;;1.03;;
48665;SDS011;34452;50.796;4.994;2023-04-25T14:49:04;3.20;;;1.00;;
48665;SDS011;34452;50.796;4.994;2023-04-25T14:51:30;2.20;;;0.85;;
48665;SDS011;34452;50.796;4.994;2023-04-25T14:53:56;5.63;;;1.05;;
48665;SDS011;34452;50.796;4.994;2023-04-25T14:56:21;5.10;;;1.08;;
48665;SDS011;34452;50.796;4.994;2023-04-25T14:58:47;10.60;;;1.40;;
48665;SDS011;34452;50.796;4.994;2023-04-25T15:01:13;5.65;;;1.30;;
48665;SDS011;34452;50.796;4.994;2023-04-25T15:03:39;2.33;;;0.63;;
48665;SDS011;34452;50.796;4.994;2023-04-25T15:06:05;2.55;;;1.00;;
48665;SDS011;34452;50.796;4.994;2023-04-25T15:08:31;9.63;;;1.33;;
48665;SDS011;34452;50.796;4.994;2023-04-25T15:10:58;7.32;;;1.40;;
48665;SDS011;34452;50.796;4.994;2023-04-25T15:13:24;3.10;;;1.02;;
48665;SDS011;34452;50.796;4.994;2023-04-25T15:18:17;13.63;;;1.50;;
48665;SDS011;34452;50.796;4.994;2023-04-25T15:20:46;4.75;;;1.20;;
48665;SDS011;34452;50.796;4.994;2023-04-25T15:23:12;6.20;;;1.48;;
48665;SDS011;34452;50.796;4.994;2023-04-25T15:25:38;7.18;;;1.58;;
48665;SDS011;34452;50.796;4.994;2023-04-25T15:28:04;1.48;;;0.80;;
48665;SDS011;34452;50.796;4.994;2023-04-25T15:30:29;8.05;;;1.40;;
48665;SDS011;34452;50.796;4.994;2023-04-25T15:32:55;8.55;;;1.30;;
48665;SDS011;34452;50.796;4.994;2023-04-25T15:35:21;13.75;;;1.52;;
48665;SDS011;34452;50.796;4.994;2023-04-25T15:37:47;4.65;;;1.10;;
48665;SDS011;34452;50.796;4.994;2023-04-25T15:40:14;4.73;;;1.23;;
48665;SDS011;34452;50.796;4.994;2023-04-25T15:45:08;6.88;;;1.33;;